sensor_id;sensor_type;location;lat;lon;timestamp;temperature;humidity
75786;DHT22;64402;44.708;37.644;2023-07-31T00:00:07;20.16;71.67
75786;DHT22;64402;44.708;37.644;2023-07-31T00:02:35;20.18;72.16
75786;DHT22;64402;44.708;37.644;2023-07-31T00:05:02;20.21;72.35
75786;DHT22;64402;44.708;37.644;2023-07-31T00:07:30;20.21;72.58
75786;DHT22;64402;44.708;37.644;2023-07-31T00:09:57;20.20;72.39
75786;DHT22;64402;44.708;37.644;2023-07-31T00:12:27;20.18;72.59
75786;DHT22;64402;44.708;37.644;2023-07-31T00:14:56;20.14;72.70
75786;DHT22;64402;44.708;37.644;2023-07-31T00:17:26;20.11;73.06
75786;DHT22;64402;44.708;37.644;2023-07-31T00:19:53;20.13;73.11
75786;DHT22;64402;44.708;37.644;2023-07-31T00:22:20;20.14;73.17
75786;DHT22;64402;44.708;37.644;2023-07-31T00:24:47;20.14;73.26
75786;DHT22;64402;44.708;37.644;2023-07-31T00:27:13;20.16;73.31
75786;DHT22;64402;44.708;37.644;2023-07-31T00:29:41;20.18;72.90
75786;DHT22;64402;44.708;37.644;2023-07-31T00:32:09;20.20;72.96
75786;DHT22;64402;44.708;37.644;2023-07-31T00:34:36;20.24;73.09
75786;DHT22;64402;44.708;37.644;2023-07-31T00:37:02;20.25;73.13
75786;DHT22;64402;44.708;37.644;2023-07-31T00:39:30;20.26;73.29
75786;DHT22;64402;44.708;37.644;2023-07-31T00:41:59;20.28;73.93
75786;DHT22;64402;44.708;37.644;2023-07-31T00:44:26;20.30;73.91
75786;DHT22;64402;44.708;37.644;2023-07-31T00:46:55;20.29;74.67
75786;DHT22;64402;44.708;37.644;2023-07-31T00:49:27;20.29;74.38
75786;DHT22;64402;44.708;37.644;2023-07-31T00:51:55;20.30;74.76
75786;DHT22;64402;44.708;37.644;2023-07-31T00:54:23;20.30;75.09
75786;DHT22;64402;44.708;37.644;2023-07-31T00:56:50;20.29;75.20
75786;DHT22;64402;44.708;37.644;2023-07-31T00:59:19;20.31;75.31
75786;DHT22;64402;44.708;37.644;2023-07-31T01:01:48;20.31;76.14
75786;DHT22;64402;44.708;37.644;2023-07-31T01:04:16;20.31;75.76
75786;DHT22;64402;44.708;37.644;2023-07-31T01:07:01;20.31;76.15
75786;DHT22;64402;44.708;37.644;2023-07-31T01:09:40;20.29;75.86
75786;DHT22;64402;44.708;37.644;2023-07-31T01:12:14;20.24;75.56
75786;DHT22;64402;44.708;37.644;2023-07-31T01:14:41;20.20;75.99
75786;DHT22;64402;44.708;37.644;2023-07-31T01:17:18;20.17;77.02
75786;DHT22;64402;44.708;37.644;2023-07-31T01:19:47;20.14;76.89
75786;DHT22;64402;44.708;37.644;2023-07-31T01:22:23;20.13;77.64
75786;DHT22;64402;44.708;37.644;2023-07-31T01:27:48;20.13;77.74
75786;DHT22;64402;44.708;37.644;2023-07-31T01:30:22;20.17;77.40
75786;DHT22;64402;44.708;37.644;2023-07-31T01:32:53;20.16;77.16
75786;DHT22;64402;44.708;37.644;2023-07-31T01:35:21;20.14;77.66
75786;DHT22;64402;44.708;37.644;2023-07-31T01:37:48;20.14;77.31
75786;DHT22;64402;44.708;37.644;2023-07-31T01:40:15;20.07;77.52
75786;DHT22;64402;44.708;37.644;2023-07-31T01:42:42;20.04;77.88
75786;DHT22;64402;44.708;37.644;2023-07-31T01:45:09;20.04;77.97
75786;DHT22;64402;44.708;37.644;2023-07-31T01:47:36;20.05;77.88
75786;DHT22;64402;44.708;37.644;2023-07-31T01:50:03;20.02;78.29
75786;DHT22;64402;44.708;37.644;2023-07-31T01:52:30;19.99;78.72
75786;DHT22;64402;44.708;37.644;2023-07-31T01:54:57;19.95;78.96
75786;DHT22;64402;44.708;37.644;2023-07-31T01:57:24;19.95;78.79
75786;DHT22;64402;44.708;37.644;2023-07-31T01:59:51;19.97;78.85
75786;DHT22;64402;44.708;37.644;2023-07-31T02:02:20;19.97;78.65
75786;DHT22;64402;44.708;37.644;2023-07-31T02:04:47;19.98;78.52
75786;DHT22;64402;44.708;37.644;2023-07-31T02:07:13;19.96;78.21
75786;DHT22;64402;44.708;37.644;2023-07-31T02:09:40;19.94;78.50
75786;DHT22;64402;44.708;37.644;2023-07-31T02:12:07;19.92;78.47
75786;DHT22;64402;44.708;37.644;2023-07-31T02:14:37;19.89;78.43
75786;DHT22;64402;44.708;37.644;2023-07-31T02:17:06;19.84;78.18
75786;DHT22;64402;44.708;37.644;2023-07-31T02:19:36;19.83;78.05
75786;DHT22;64402;44.708;37.644;2023-07-31T02:22:04;19.81;77.78
75786;DHT22;64402;44.708;37.644;2023-07-31T02:24:31;19.84;77.36
75786;DHT22;64402;44.708;37.644;2023-07-31T02:26:58;19.87;77.05
75786;DHT22;64402;44.708;37.644;2023-07-31T02:29:25;19.89;76.88
75786;DHT22;64402;44.708;37.644;2023-07-31T02:31:52;19.95;76.44
75786;DHT22;64402;44.708;37.644;2023-07-31T02:34:19;20.05;75.85
75786;DHT22;64402;44.708;37.644;2023-07-31T02:36:46;20.15;75.38
75786;DHT22;64402;44.708;37.644;2023-07-31T02:39:13;20.25;75.18
75786;DHT22;64402;44.708;37.644;2023-07-31T02:41:40;20.33;74.76
75786;DHT22;64402;44.708;37.644;2023-07-31T02:44:07;20.42;74.64
75786;DHT22;64402;44.708;37.644;2023-07-31T02:46:33;20.49;74.38
75786;DHT22;64402;44.708;37.644;2023-07-31T02:49:00;20.57;73.68
75786;DHT22;64402;44.708;37.644;2023-07-31T02:51:28;20.62;73.67
75786;DHT22;64402;44.708;37.644;2023-07-31T02:53:58;20.69;73.53
75786;DHT22;64402;44.708;37.644;2023-07-31T02:56:26;20.74;72.87
75786;DHT22;64402;44.708;37.644;2023-07-31T02:58:52;20.80;73.03
75786;DHT22;64402;44.708;37.644;2023-07-31T03:01:19;20.84;73.13
75786;DHT22;64402;44.708;37.644;2023-07-31T03:03:46;20.90;72.90
75786;DHT22;64402;44.708;37.644;2023-07-31T03:06:12;20.95;72.56
75786;DHT22;64402;44.708;37.644;2023-07-31T03:08:39;21.00;72.59
75786;DHT22;64402;44.708;37.644;2023-07-31T03:11:07;21.04;72.89
75786;DHT22;64402;44.708;37.644;2023-07-31T03:13:35;21.07;72.81
75786;DHT22;64402;44.708;37.644;2023-07-31T03:16:02;21.14;72.34
75786;DHT22;64402;44.708;37.644;2023-07-31T03:18:29;21.17;72.41
75786;DHT22;64402;44.708;37.644;2023-07-31T03:20:55;21.23;72.06
75786;DHT22;64402;44.708;37.644;2023-07-31T03:23:22;21.30;71.63
75786;DHT22;64402;44.708;37.644;2023-07-31T03:25:59;21.38;70.18
75786;DHT22;64402;44.708;37.644;2023-07-31T03:28:26;21.49;70.34
75786;DHT22;64402;44.708;37.644;2023-07-31T03:30:56;21.58;70.81
75786;DHT22;64402;44.708;37.644;2023-07-31T03:33:24;21.63;69.93
75786;DHT22;64402;44.708;37.644;2023-07-31T03:35:53;21.70;70.05
75786;DHT22;64402;44.708;37.644;2023-07-31T03:38:21;21.79;69.25
75786;DHT22;64402;44.708;37.644;2023-07-31T03:40:48;21.88;68.81
75786;DHT22;64402;44.708;37.644;2023-07-31T03:43:15;21.96;68.87
75786;DHT22;64402;44.708;37.644;2023-07-31T03:45:42;22.05;68.85
75786;DHT22;64402;44.708;37.644;2023-07-31T03:48:09;22.13;67.40
75786;DHT22;64402;44.708;37.644;2023-07-31T03:50:36;22.24;67.39
75786;DHT22;64402;44.708;37.644;2023-07-31T03:53:04;22.35;66.57
75786;DHT22;64402;44.708;37.644;2023-07-31T03:55:31;22.44;66.43
75786;DHT22;64402;44.708;37.644;2023-07-31T03:58:00;22.54;66.26
75786;DHT22;64402;44.708;37.644;2023-07-31T04:00:28;22.63;66.00
75786;DHT22;64402;44.708;37.644;2023-07-31T04:02:54;22.71;66.00
75786;DHT22;64402;44.708;37.644;2023-07-31T04:05:21;22.78;66.17
75786;DHT22;64402;44.708;37.644;2023-07-31T04:07:48;22.84;65.62
75786;DHT22;64402;44.708;37.644;2023-07-31T04:10:15;22.94;65.83
75786;DHT22;64402;44.708;37.644;2023-07-31T04:12:41;23.01;65.37
75786;DHT22;64402;44.708;37.644;2023-07-31T04:15:08;23.12;64.85
75786;DHT22;64402;44.708;37.644;2023-07-31T04:17:37;23.20;63.91
75786;DHT22;64402;44.708;37.644;2023-07-31T04:20:05;23.30;63.49
75786;DHT22;64402;44.708;37.644;2023-07-31T04:22:32;23.40;62.56
75786;DHT22;64402;44.708;37.644;2023-07-31T04:25:01;23.50;62.46
75786;DHT22;64402;44.708;37.644;2023-07-31T04:27:29;23.60;62.00
75786;DHT22;64402;44.708;37.644;2023-07-31T04:29:57;23.72;61.98
75786;DHT22;64402;44.708;37.644;2023-07-31T04:32:24;23.83;60.64
75786;DHT22;64402;44.708;37.644;2023-07-31T04:34:51;23.91;59.32
75786;DHT22;64402;44.708;37.644;2023-07-31T04:37:17;24.00;59.96
75786;DHT22;64402;44.708;37.644;2023-07-31T04:39:46;24.08;59.29
75786;DHT22;64402;44.708;37.644;2023-07-31T04:42:13;24.18;59.02
75786;DHT22;64402;44.708;37.644;2023-07-31T04:44:39;24.29;59.09
75786;DHT22;64402;44.708;37.644;2023-07-31T04:47:06;24.39;58.30
75786;DHT22;64402;44.708;37.644;2023-07-31T04:49:33;24.53;57.74
75786;DHT22;64402;44.708;37.644;2023-07-31T04:52:00;24.62;57.74
75786;DHT22;64402;44.708;37.644;2023-07-31T04:54:26;24.70;56.39
75786;DHT22;64402;44.708;37.644;2023-07-31T04:56:52;24.78;56.64
75786;DHT22;64402;44.708;37.644;2023-07-31T04:59:18;24.86;56.38
75786;DHT22;64402;44.708;37.644;2023-07-31T05:01:45;24.99;56.15
75786;DHT22;64402;44.708;37.644;2023-07-31T05:04:14;25.12;56.18
75786;DHT22;64402;44.708;37.644;2023-07-31T05:06:41;25.21;55.71
75786;DHT22;64402;44.708;37.644;2023-07-31T05:09:07;25.30;55.19
75786;DHT22;64402;44.708;37.644;2023-07-31T05:11:35;25.37;55.07
75786;DHT22;64402;44.708;37.644;2023-07-31T05:14:01;25.47;55.08
75786;DHT22;64402;44.708;37.644;2023-07-31T05:16:27;25.56;55.10
75786;DHT22;64402;44.708;37.644;2023-07-31T05:18:53;25.65;54.19
75786;DHT22;64402;44.708;37.644;2023-07-31T05:21:19;25.80;54.32
75786;DHT22;64402;44.708;37.644;2023-07-31T05:23:45;25.94;54.20
75786;DHT22;64402;44.708;37.644;2023-07-31T05:26:13;26.06;53.57
75786;DHT22;64402;44.708;37.644;2023-07-31T05:28:39;26.18;52.83
75786;DHT22;64402;44.708;37.644;2023-07-31T05:31:06;26.28;52.33
75786;DHT22;64402;44.708;37.644;2023-07-31T05:33:32;26.41;52.28
75786;DHT22;64402;44.708;37.644;2023-07-31T05:35:59;26.49;51.64
75786;DHT22;64402;44.708;37.644;2023-07-31T05:38:25;26.57;51.33
75786;DHT22;64402;44.708;37.644;2023-07-31T05:40:51;26.68;51.54
75786;DHT22;64402;44.708;37.644;2023-07-31T05:43:17;26.81;51.75
75786;DHT22;64402;44.708;37.644;2023-07-31T05:45:43;26.92;51.14
75786;DHT22;64402;44.708;37.644;2023-07-31T05:48:09;26.98;50.26
75786;DHT22;64402;44.708;37.644;2023-07-31T05:50:36;27.11;50.49
75786;DHT22;64402;44.708;37.644;2023-07-31T05:53:05;27.23;49.29
75786;DHT22;64402;44.708;37.644;2023-07-31T05:55:32;27.34;48.92
75786;DHT22;64402;44.708;37.644;2023-07-31T05:57:58;27.47;48.99
75786;DHT22;64402;44.708;37.644;2023-07-31T06:00:24;27.52;48.34
75786;DHT22;64402;44.708;37.644;2023-07-31T06:02:50;27.69;48.22
75786;DHT22;64402;44.708;37.644;2023-07-31T06:05:17;27.82;48.79
75786;DHT22;64402;44.708;37.644;2023-07-31T06:07:43;27.91;47.92
75786;DHT22;64402;44.708;37.644;2023-07-31T06:10:09;28.04;47.56
75786;DHT22;64402;44.708;37.644;2023-07-31T06:12:35;28.16;47.19
75786;DHT22;64402;44.708;37.644;2023-07-31T06:15:03;28.27;47.06
75786;DHT22;64402;44.708;37.644;2023-07-31T06:17:29;28.39;46.29
75786;DHT22;64402;44.708;37.644;2023-07-31T06:19:56;28.43;45.90
75786;DHT22;64402;44.708;37.644;2023-07-31T06:22:22;28.54;44.89
75786;DHT22;64402;44.708;37.644;2023-07-31T06:24:49;28.61;45.01
75786;DHT22;64402;44.708;37.644;2023-07-31T06:27:15;28.71;44.60
75786;DHT22;64402;44.708;37.644;2023-07-31T06:29:42;28.82;43.76
75786;DHT22;64402;44.708;37.644;2023-07-31T06:32:08;28.91;43.91
75786;DHT22;64402;44.708;37.644;2023-07-31T06:34:34;29.00;44.61
75786;DHT22;64402;44.708;37.644;2023-07-31T06:37:00;29.12;44.62
75786;DHT22;64402;44.708;37.644;2023-07-31T06:39:27;29.21;44.39
75786;DHT22;64402;44.708;37.644;2023-07-31T06:41:53;29.35;42.86
75786;DHT22;64402;44.708;37.644;2023-07-31T06:44:19;29.57;42.29
75786;DHT22;64402;44.708;37.644;2023-07-31T06:46:45;29.76;42.03
75786;DHT22;64402;44.708;37.644;2023-07-31T06:49:11;29.81;41.98
75786;DHT22;64402;44.708;37.644;2023-07-31T06:51:38;29.98;41.07
75786;DHT22;64402;44.708;37.644;2023-07-31T06:54:04;30.17;41.03
75786;DHT22;64402;44.708;37.644;2023-07-31T06:56:30;30.39;40.03
75786;DHT22;64402;44.708;37.644;2023-07-31T06:58:56;30.62;39.84
75786;DHT22;64402;44.708;37.644;2023-07-31T07:01:23;30.66;39.01
75786;DHT22;64402;44.708;37.644;2023-07-31T07:03:49;30.80;40.07
75786;DHT22;64402;44.708;37.644;2023-07-31T07:06:17;30.85;39.08
75786;DHT22;64402;44.708;37.644;2023-07-31T07:08:43;31.13;38.55
75786;DHT22;64402;44.708;37.644;2023-07-31T07:11:10;31.37;38.59
75786;DHT22;64402;44.708;37.644;2023-07-31T07:13:36;31.44;38.17
75786;DHT22;64402;44.708;37.644;2023-07-31T07:16:02;31.39;37.62
75786;DHT22;64402;44.708;37.644;2023-07-31T07:18:28;31.35;38.04
75786;DHT22;64402;44.708;37.644;2023-07-31T07:20:55;31.46;38.21
75786;DHT22;64402;44.708;37.644;2023-07-31T07:23:23;31.78;37.47
75786;DHT22;64402;44.708;37.644;2023-07-31T07:25:50;31.98;36.65
75786;DHT22;64402;44.708;37.644;2023-07-31T07:28:17;32.11;36.59
75786;DHT22;64402;44.708;37.644;2023-07-31T07:30:43;32.28;36.59
75786;DHT22;64402;44.708;37.644;2023-07-31T07:33:09;32.34;35.69
75786;DHT22;64402;44.708;37.644;2023-07-31T07:35:36;32.22;35.52
75786;DHT22;64402;44.708;37.644;2023-07-31T07:38:03;32.16;35.33
75786;DHT22;64402;44.708;37.644;2023-07-31T07:40:29;32.28;34.99
75786;DHT22;64402;44.708;37.644;2023-07-31T07:42:56;32.31;35.15
75786;DHT22;64402;44.708;37.644;2023-07-31T07:45:22;32.40;35.29
75786;DHT22;64402;44.708;37.644;2023-07-31T07:47:48;32.43;34.99
75786;DHT22;64402;44.708;37.644;2023-07-31T07:50:14;32.39;34.71
75786;DHT22;64402;44.708;37.644;2023-07-31T07:52:40;32.30;35.47
75786;DHT22;64402;44.708;37.644;2023-07-31T07:55:07;32.23;35.24
75786;DHT22;64402;44.708;37.644;2023-07-31T07:57:33;32.30;36.00
75786;DHT22;64402;44.708;37.644;2023-07-31T07:59:59;32.52;35.12
75786;DHT22;64402;44.708;37.644;2023-07-31T08:02:25;32.77;34.43
75786;DHT22;64402;44.708;37.644;2023-07-31T08:04:51;32.99;34.52
75786;DHT22;64402;44.708;37.644;2023-07-31T08:07:17;33.06;34.00
75786;DHT22;64402;44.708;37.644;2023-07-31T08:09:44;33.05;34.09
75786;DHT22;64402;44.708;37.644;2023-07-31T08:12:10;32.87;34.28
75786;DHT22;64402;44.708;37.644;2023-07-31T08:14:36;32.82;34.51
75786;DHT22;64402;44.708;37.644;2023-07-31T08:17:02;32.92;33.94
75786;DHT22;64402;44.708;37.644;2023-07-31T08:19:29;33.03;33.96
75786;DHT22;64402;44.708;37.644;2023-07-31T08:21:55;33.09;34.17
75786;DHT22;64402;44.708;37.644;2023-07-31T08:24:21;33.27;33.93
75786;DHT22;64402;44.708;37.644;2023-07-31T08:26:47;33.38;33.80
75786;DHT22;64402;44.708;37.644;2023-07-31T08:29:14;33.42;32.75
75786;DHT22;64402;44.708;37.644;2023-07-31T08:31:40;33.46;32.48
75786;DHT22;64402;44.708;37.644;2023-07-31T08:34:06;33.68;32.89
75786;DHT22;64402;44.708;37.644;2023-07-31T08:36:33;33.66;32.39
75786;DHT22;64402;44.708;37.644;2023-07-31T08:38:59;33.74;33.12
75786;DHT22;64402;44.708;37.644;2023-07-31T08:41:25;33.81;32.29
75786;DHT22;64402;44.708;37.644;2023-07-31T08:43:55;33.72;32.02
75786;DHT22;64402;44.708;37.644;2023-07-31T08:46:21;33.94;31.87
75786;DHT22;64402;44.708;37.644;2023-07-31T08:48:47;34.24;31.65
75786;DHT22;64402;44.708;37.644;2023-07-31T08:51:14;34.25;31.31
75786;DHT22;64402;44.708;37.644;2023-07-31T08:53:40;34.44;30.45
75786;DHT22;64402;44.708;37.644;2023-07-31T08:56:07;34.69;30.63
75786;DHT22;64402;44.708;37.644;2023-07-31T08:58:34;35.96;28.23
75786;DHT22;64402;44.708;37.644;2023-07-31T09:01:04;37.86;25.20
75786;DHT22;64402;44.708;37.644;2023-07-31T09:03:34;39.55;21.40
75786;DHT22;64402;44.708;37.644;2023-07-31T09:06:02;40.61;20.66
75786;DHT22;64402;44.708;37.644;2023-07-31T09:08:30;41.24;19.44
75786;DHT22;64402;44.708;37.644;2023-07-31T09:11:01;41.66;19.07
75786;DHT22;64402;44.708;37.644;2023-07-31T09:13:31;42.39;18.41
75786;DHT22;64402;44.708;37.644;2023-07-31T09:15:58;42.92;17.26
75786;DHT22;64402;44.708;37.644;2023-07-31T09:18:24;43.26;17.03
75786;DHT22;64402;44.708;37.644;2023-07-31T09:21:06;44.09;15.07
75786;DHT22;64402;44.708;37.644;2023-07-31T09:23:43;44.80;15.07
75786;DHT22;64402;44.708;37.644;2023-07-31T09:26:09;45.41;14.87
75786;DHT22;64402;44.708;37.644;2023-07-31T09:28:36;45.72;13.21
75786;DHT22;64402;44.708;37.644;2023-07-31T09:31:02;46.35;14.21
75786;DHT22;64402;44.708;37.644;2023-07-31T09:33:28;46.90;13.99
75786;DHT22;64402;44.708;37.644;2023-07-31T09:35:54;47.50;13.11
75786;DHT22;64402;44.708;37.644;2023-07-31T09:38:20;47.77;12.91
75786;DHT22;64402;44.708;37.644;2023-07-31T09:40:47;47.33;13.27
75786;DHT22;64402;44.708;37.644;2023-07-31T09:43:21;45.13;14.29
75786;DHT22;64402;44.708;37.644;2023-07-31T09:45:48;43.85;17.13
75786;DHT22;64402;44.708;37.644;2023-07-31T09:48:15;42.01;18.57
75786;DHT22;64402;44.708;37.644;2023-07-31T09:50:46;41.17;19.99
75786;DHT22;64402;44.708;37.644;2023-07-31T09:53:12;43.59;16.56
75786;DHT22;64402;44.708;37.644;2023-07-31T09:55:40;45.48;14.42
75786;DHT22;64402;44.708;37.644;2023-07-31T09:58:11;46.81;13.22
75786;DHT22;64402;44.708;37.644;2023-07-31T10:00:38;47.78;11.81
75786;DHT22;64402;44.708;37.644;2023-07-31T10:03:06;48.13;11.40
75786;DHT22;64402;44.708;37.644;2023-07-31T10:05:38;48.10;10.91
75786;DHT22;64402;44.708;37.644;2023-07-31T10:08:04;49.17;10.73
75786;DHT22;64402;44.708;37.644;2023-07-31T10:10:32;49.40;10.30
75786;DHT22;64402;44.708;37.644;2023-07-31T10:12:59;49.92;10.33
75786;DHT22;64402;44.708;37.644;2023-07-31T10:15:26;50.45;9.68
75786;DHT22;64402;44.708;37.644;2023-07-31T10:17:54;50.88;9.46
75786;DHT22;64402;44.708;37.644;2023-07-31T10:20:20;50.22;9.63
75786;DHT22;64402;44.708;37.644;2023-07-31T10:22:47;50.75;8.84
75786;DHT22;64402;44.708;37.644;2023-07-31T10:25:18;50.72;8.66
75786;DHT22;64402;44.708;37.644;2023-07-31T10:27:47;51.67;8.40
75786;DHT22;64402;44.708;37.644;2023-07-31T10:30:18;52.12;7.05
75786;DHT22;64402;44.708;37.644;2023-07-31T10:32:45;51.99;7.48
75786;DHT22;64402;44.708;37.644;2023-07-31T10:35:12;52.31;7.30
75786;DHT22;64402;44.708;37.644;2023-07-31T10:37:40;51.98;7.49
75786;DHT22;64402;44.708;37.644;2023-07-31T10:42:52;52.94;6.18
75786;DHT22;64402;44.708;37.644;2023-07-31T10:45:36;53.02;6.54
75786;DHT22;64402;44.708;37.644;2023-07-31T10:48:07;52.67;6.51
75786;DHT22;64402;44.708;37.644;2023-07-31T10:50:40;53.38;6.49
75786;DHT22;64402;44.708;37.644;2023-07-31T10:53:31;53.02;6.03
75786;DHT22;64402;44.708;37.644;2023-07-31T10:56:02;52.28;6.68
75786;DHT22;64402;44.708;37.644;2023-07-31T10:58:30;53.03;6.89
75786;DHT22;64402;44.708;37.644;2023-07-31T11:01:00;53.30;6.03
75786;DHT22;64402;44.708;37.644;2023-07-31T11:03:40;50.73;8.13
75786;DHT22;64402;44.708;37.644;2023-07-31T11:06:07;48.02;10.62
75786;DHT22;64402;44.708;37.644;2023-07-31T11:08:44;46.96;11.66
75786;DHT22;64402;44.708;37.644;2023-07-31T11:11:14;48.06;10.14
75786;DHT22;64402;44.708;37.644;2023-07-31T11:13:52;49.41;9.39
75786;DHT22;64402;44.708;37.644;2023-07-31T11:16:23;50.68;9.24
75786;DHT22;64402;44.708;37.644;2023-07-31T11:18:50;51.36;7.81
75786;DHT22;64402;44.708;37.644;2023-07-31T11:21:19;52.16;6.91
75786;DHT22;64402;44.708;37.644;2023-07-31T11:23:50;53.32;6.28
75786;DHT22;64402;44.708;37.644;2023-07-31T11:26:17;54.05;5.66
75786;DHT22;64402;44.708;37.644;2023-07-31T11:28:46;53.70;5.29
75786;DHT22;64402;44.708;37.644;2023-07-31T11:31:13;53.84;5.67
75786;DHT22;64402;44.708;37.644;2023-07-31T11:33:39;54.06;5.47
75786;DHT22;64402;44.708;37.644;2023-07-31T11:36:05;53.90;5.82
75786;DHT22;64402;44.708;37.644;2023-07-31T11:38:33;53.52;6.22
75786;DHT22;64402;44.708;37.644;2023-07-31T11:41:04;50.96;8.11
75786;DHT22;64402;44.708;37.644;2023-07-31T11:43:33;51.68;7.69
75786;DHT22;64402;44.708;37.644;2023-07-31T11:46:02;52.89;6.70
75786;DHT22;64402;44.708;37.644;2023-07-31T11:48:30;53.88;5.84
75786;DHT22;64402;44.708;37.644;2023-07-31T11:51:19;54.43;5.38
75786;DHT22;64402;44.708;37.644;2023-07-31T11:53:50;54.13;5.02
75786;DHT22;64402;44.708;37.644;2023-07-31T11:56:18;54.08;6.05
75786;DHT22;64402;44.708;37.644;2023-07-31T11:58:58;51.38;7.85
75786;DHT22;64402;44.708;37.644;2023-07-31T12:01:26;48.35;10.66
75786;DHT22;64402;44.708;37.644;2023-07-31T12:03:53;46.10;12.54
75786;DHT22;64402;44.708;37.644;2023-07-31T12:06:20;47.04;12.22
75786;DHT22;64402;44.708;37.644;2023-07-31T12:08:47;48.25;11.06
75786;DHT22;64402;44.708;37.644;2023-07-31T12:11:14;47.94;15.83
75786;DHT22;64402;44.708;37.644;2023-07-31T12:13:41;47.85;15.39
75786;DHT22;64402;44.708;37.644;2023-07-31T12:16:07;47.69;16.89
75786;DHT22;64402;44.708;37.644;2023-07-31T12:18:35;47.98;15.10
75786;DHT22;64402;44.708;37.644;2023-07-31T12:21:04;46.22;17.05
75786;DHT22;64402;44.708;37.644;2023-07-31T12:23:32;46.29;18.93
75786;DHT22;64402;44.708;37.644;2023-07-31T12:28:36;46.18;18.45
75786;DHT22;64402;44.708;37.644;2023-07-31T12:31:04;47.37;17.69
75786;DHT22;64402;44.708;37.644;2023-07-31T12:33:35;46.94;18.71
75786;DHT22;64402;44.708;37.644;2023-07-31T12:36:03;45.17;21.44
75786;DHT22;64402;44.708;37.644;2023-07-31T12:38:30;43.93;22.92
75786;DHT22;64402;44.708;37.644;2023-07-31T12:40:56;43.83;22.98
75786;DHT22;64402;44.708;37.644;2023-07-31T12:43:23;43.52;23.37
75786;DHT22;64402;44.708;37.644;2023-07-31T12:45:49;43.91;23.05
75786;DHT22;64402;44.708;37.644;2023-07-31T12:48:15;43.44;23.37
75786;DHT22;64402;44.708;37.644;2023-07-31T12:50:41;42.84;24.36
75786;DHT22;64402;44.708;37.644;2023-07-31T12:53:07;43.38;23.18
75786;DHT22;64402;44.708;37.644;2023-07-31T12:55:33;42.65;24.37
75786;DHT22;64402;44.708;37.644;2023-07-31T12:58:00;42.76;24.07
75786;DHT22;64402;44.708;37.644;2023-07-31T13:00:27;41.90;25.39
75786;DHT22;64402;44.708;37.644;2023-07-31T13:02:53;42.11;24.77
75786;DHT22;64402;44.708;37.644;2023-07-31T13:05:19;42.10;24.72
75786;DHT22;64402;44.708;37.644;2023-07-31T13:07:48;41.98;24.68
75786;DHT22;64402;44.708;37.644;2023-07-31T13:10:14;41.45;25.57
75786;DHT22;64402;44.708;37.644;2023-07-31T13:12:41;42.21;24.25
75786;DHT22;64402;44.708;37.644;2023-07-31T13:15:10;42.58;24.20
75786;DHT22;64402;44.708;37.644;2023-07-31T13:17:36;43.05;23.29
75786;DHT22;64402;44.708;37.644;2023-07-31T13:20:03;43.06;23.30
75786;DHT22;64402;44.708;37.644;2023-07-31T13:22:30;43.27;23.13
75786;DHT22;64402;44.708;37.644;2023-07-31T13:24:56;42.61;24.15
75786;DHT22;64402;44.708;37.644;2023-07-31T13:27:22;42.64;23.99
75786;DHT22;64402;44.708;37.644;2023-07-31T13:29:51;41.45;26.01
75786;DHT22;64402;44.708;37.644;2023-07-31T13:32:18;41.04;27.02
75786;DHT22;64402;44.708;37.644;2023-07-31T13:34:45;41.33;26.88
75786;DHT22;64402;44.708;37.644;2023-07-31T13:37:12;41.19;26.96
75786;DHT22;64402;44.708;37.644;2023-07-31T13:39:39;40.95;27.29
75786;DHT22;64402;44.708;37.644;2023-07-31T13:42:06;39.78;29.07
75786;DHT22;64402;44.708;37.644;2023-07-31T13:44:37;39.42;29.51
75786;DHT22;64402;44.708;37.644;2023-07-31T13:47:04;38.24;32.14
75786;DHT22;64402;44.708;37.644;2023-07-31T13:49:30;37.38;33.92
75786;DHT22;64402;44.708;37.644;2023-07-31T13:51:57;36.56;35.74
75786;DHT22;64402;44.708;37.644;2023-07-31T13:54:24;36.69;35.56
75786;DHT22;64402;44.708;37.644;2023-07-31T13:56:50;36.54;36.00
75786;DHT22;64402;44.708;37.644;2023-07-31T13:59:16;37.86;33.75
75786;DHT22;64402;44.708;37.644;2023-07-31T14:01:43;39.02;31.25
75786;DHT22;64402;44.708;37.644;2023-07-31T14:04:09;37.55;34.28
75786;DHT22;64402;44.708;37.644;2023-07-31T14:06:36;38.04;33.22
75786;DHT22;64402;44.708;37.644;2023-07-31T14:09:02;38.90;31.96
75786;DHT22;64402;44.708;37.644;2023-07-31T14:11:30;39.29;30.77
75786;DHT22;64402;44.708;37.644;2023-07-31T14:13:57;39.86;30.03
75786;DHT22;64402;44.708;37.644;2023-07-31T14:16:23;40.04;29.35
75786;DHT22;64402;44.708;37.644;2023-07-31T14:18:49;40.44;28.91
75786;DHT22;64402;44.708;37.644;2023-07-31T14:21:15;40.87;28.20
75786;DHT22;64402;44.708;37.644;2023-07-31T14:23:41;40.41;28.86
75786;DHT22;64402;44.708;37.644;2023-07-31T14:26:08;40.91;27.97
75786;DHT22;64402;44.708;37.644;2023-07-31T14:28:34;39.97;29.58
75786;DHT22;64402;44.708;37.644;2023-07-31T14:31:00;39.51;30.83
75786;DHT22;64402;44.708;37.644;2023-07-31T14:33:26;38.51;31.87
75786;DHT22;64402;44.708;37.644;2023-07-31T14:35:52;37.17;35.08
75786;DHT22;64402;44.708;37.644;2023-07-31T14:38:19;36.27;36.72
75786;DHT22;64402;44.708;37.644;2023-07-31T14:40:45;37.12;34.89
75786;DHT22;64402;44.708;37.644;2023-07-31T14:43:11;37.99;32.93
75786;DHT22;64402;44.708;37.644;2023-07-31T14:45:37;37.28;34.57
75786;DHT22;64402;44.708;37.644;2023-07-31T14:48:03;36.48;36.42
75786;DHT22;64402;44.708;37.644;2023-07-31T14:50:29;35.43;38.77
75786;DHT22;64402;44.708;37.644;2023-07-31T14:52:56;34.57;40.56
75786;DHT22;64402;44.708;37.644;2023-07-31T14:55:22;33.90;42.18
75786;DHT22;64402;44.708;37.644;2023-07-31T14:57:48;33.77;42.29
75786;DHT22;64402;44.708;37.644;2023-07-31T15:00:14;34.48;40.49
75786;DHT22;64402;44.708;37.644;2023-07-31T15:02:40;34.45;40.94
75786;DHT22;64402;44.708;37.644;2023-07-31T15:05:07;34.06;41.41
75786;DHT22;64402;44.708;37.644;2023-07-31T15:07:34;34.17;41.74
75786;DHT22;64402;44.708;37.644;2023-07-31T15:10:04;35.42;39.34
75786;DHT22;64402;44.708;37.644;2023-07-31T15:12:31;36.27;36.94
75786;DHT22;64402;44.708;37.644;2023-07-31T15:14:57;35.82;37.76
75786;DHT22;64402;44.708;37.644;2023-07-31T15:17:23;36.27;36.66
75786;DHT22;64402;44.708;37.644;2023-07-31T15:19:50;36.53;35.85
75786;DHT22;64402;44.708;37.644;2023-07-31T15:22:16;36.10;36.77
75786;DHT22;64402;44.708;37.644;2023-07-31T15:24:42;36.63;35.59
75786;DHT22;64402;44.708;37.644;2023-07-31T15:27:08;36.97;34.70